createdAt,value
2023-04-23T00:00:14.911Z,7.65
2023-04-23T00:02:46.881Z,5.93
2023-04-23T00:05:16.710Z,5.68
2023-04-23T00:07:45.572Z,4.10
2023-04-23T00:10:14.675Z,5.68
2023-04-23T00:12:47.205Z,4.45
2023-04-23T00:15:17.100Z,6.03
2023-04-23T00:17:45.723Z,5.68
2023-04-23T00:20:14.328Z,6.20
2023-04-23T00:22:43.069Z,6.35
2023-04-23T00:25:11.847Z,5.20
2023-04-23T00:27:40.491Z,4.00
2023-04-23T00:30:11.307Z,4.10
2023-04-23T00:32:40.668Z,4.93
2023-04-23T00:35:09.678Z,4.20
2023-04-23T00:37:38.229Z,3.30
2023-04-23T00:40:08.538Z,4.40
2023-04-23T00:42:38.719Z,3.97
2023-04-23T00:45:09.436Z,4.00
2023-04-23T00:47:41.352Z,4.78
2023-04-23T01:06:09.476Z,4.72
2023-04-23T01:08:39.750Z,4.45
2023-04-23T01:11:08.424Z,4.28
2023-04-23T01:13:37.211Z,4.22
2023-04-23T01:16:05.873Z,3.85
2023-04-23T01:18:34.389Z,5.13
2023-04-23T01:21:03.301Z,4.60
2023-04-23T01:23:33.229Z,3.85
2023-04-23T01:26:01.794Z,3.45
2023-04-23T01:28:31.066Z,6.13
2023-04-23T01:31:00.433Z,5.57
2023-04-23T01:33:29.207Z,5.25
2023-04-23T01:36:00.183Z,2.88
2023-04-23T01:38:32.057Z,5.85
2023-04-23T01:41:02.049Z,4.38
2023-04-23T01:43:30.624Z,3.83
2023-04-23T01:45:59.767Z,4.70
2023-04-23T01:48:30.303Z,4.25
2023-04-23T01:50:59.655Z,6.10
2023-04-23T01:53:28.260Z,5.03
2023-04-23T01:55:57.734Z,3.42
2023-04-23T01:58:27.996Z,4.28
2023-04-23T02:00:56.711Z,4.70
2023-04-23T02:03:25.511Z,2.88
2023-04-23T02:05:56.323Z,4.28
2023-04-23T02:08:24.943Z,5.35
2023-04-23T02:10:53.575Z,4.78
2023-04-23T02:13:22.224Z,4.80
2023-04-23T02:15:52.387Z,5.50
2023-04-23T02:18:21.104Z,5.00
2023-04-23T02:20:49.676Z,5.22
2023-04-23T02:23:18.331Z,6.13
2023-04-23T02:25:46.929Z,4.88
2023-04-23T02:28:15.476Z,3.45
2023-04-23T02:30:46.785Z,4.22
2023-04-23T02:33:17.023Z,5.18
2023-04-23T02:35:46.150Z,4.95
2023-04-23T02:38:14.800Z,5.63
2023-04-23T02:40:43.811Z,3.30
2023-04-23T02:43:12.422Z,4.47
2023-04-23T02:45:41.040Z,3.40
2023-04-23T02:48:10.215Z,5.85
2023-04-23T02:50:40.257Z,3.83
2023-04-23T02:53:09.375Z,3.40
2023-04-23T02:55:37.974Z,4.55
2023-04-23T02:58:06.627Z,4.00
2023-04-23T03:00:37.839Z,4.55
2023-04-23T03:03:06.617Z,4.78
2023-04-23T03:05:35.360Z,4.20
2023-04-23T03:08:05.236Z,4.65
2023-04-23T03:10:33.765Z,4.53
2023-04-23T03:13:02.301Z,4.22
2023-04-23T03:15:31.179Z,3.37
2023-04-23T03:18:01.470Z,5.68
2023-04-23T03:20:30.330Z,5.25
2023-04-23T03:22:59.220Z,4.38
2023-04-23T03:25:29.200Z,2.58
2023-04-23T03:27:57.931Z,4.88
2023-04-23T03:30:27.600Z,4.13
2023-04-23T03:32:58.061Z,4.20
2023-04-23T03:35:27.469Z,4.10
2023-04-23T03:37:58.058Z,3.70
2023-04-23T03:40:28.774Z,5.50
2023-04-23T03:43:01.173Z,2.60
2023-04-23T03:45:48.017Z,3.13
2023-04-23T03:48:16.689Z,4.90
2023-04-23T03:50:45.670Z,3.95
2023-04-23T03:53:28.696Z,4.00
2023-04-23T03:56:17.689Z,4.85
2023-04-23T03:58:55.685Z,3.90
2023-04-23T04:01:24.452Z,3.25
2023-04-23T04:03:53.426Z,4.28
2023-04-23T04:06:22.099Z,3.45
2023-04-23T04:08:50.626Z,4.72
2023-04-23T04:11:20.909Z,3.90
2023-04-23T04:13:49.549Z,4.57
2023-04-23T04:16:18.111Z,3.92
2023-04-23T04:18:46.626Z,3.05
2023-04-23T04:21:16.152Z,3.38
2023-04-23T04:23:45.729Z,3.47
2023-04-23T04:26:15.369Z,3.53
2023-04-23T04:28:45.658Z,3.50
2023-04-23T04:31:16.212Z,4.57
2023-04-23T04:33:46.446Z,2.65
2023-04-23T04:36:15.076Z,4.00
2023-04-23T04:38:44.038Z,3.50
2023-04-23T04:41:13.324Z,3.97
2023-04-23T04:43:43.747Z,3.58
2023-04-23T04:46:13.911Z,4.60
2023-04-23T04:48:42.420Z,4.47
2023-04-23T05:04:04.131Z,4.32
2023-04-23T05:06:33.405Z,2.97
2023-04-23T05:09:02.065Z,3.28
2023-04-23T05:11:30.739Z,3.72
2023-04-23T05:13:59.287Z,3.45
2023-04-23T05:16:27.941Z,2.70
2023-04-23T05:18:56.506Z,3.10
2023-04-23T05:21:27.632Z,3.03
2023-04-23T05:23:56.249Z,3.28
2023-04-23T05:26:24.801Z,4.50
2023-04-23T05:28:53.417Z,4.65
2023-04-23T05:31:22.040Z,3.40
2023-04-23T05:33:51.029Z,4.43
2023-04-23T05:36:19.929Z,3.55
2023-04-23T05:38:49.931Z,3.78
2023-04-23T05:41:18.517Z,4.57
2023-04-23T05:43:47.059Z,3.60
2023-04-23T05:46:15.849Z,3.78
2023-04-23T05:48:44.381Z,4.30
2023-04-23T05:51:13.105Z,3.55
2023-04-23T05:53:41.743Z,4.30
2023-04-23T05:56:11.898Z,3.22
2023-04-23T05:58:40.521Z,3.92
2023-04-23T06:01:09.071Z,3.17
2023-04-23T06:03:38.176Z,2.33
2023-04-23T06:06:07.281Z,3.05
2023-04-23T06:08:35.974Z,3.33
2023-04-23T06:11:04.765Z,3.30
2023-04-23T06:13:42.195Z,3.78
2023-04-23T06:16:12.186Z,2.45
2023-04-23T06:18:40.895Z,2.53
2023-04-23T06:21:09.773Z,3.00
2023-04-23T06:23:38.329Z,2.88
2023-04-23T06:26:07.276Z,2.38
2023-04-23T06:28:37.214Z,3.17
2023-04-23T06:31:26.425Z,2.85
2023-04-23T06:33:55.064Z,2.10
2023-04-23T06:36:23.582Z,1.90
2023-04-23T06:38:52.149Z,2.63
2023-04-23T06:41:20.945Z,3.08
2023-04-23T06:43:59.680Z,2.22
2023-04-23T06:46:41.167Z,2.67
2023-04-23T06:49:09.777Z,2.38
2023-04-23T06:51:38.308Z,2.15
2023-04-23T06:54:07.035Z,1.55
2023-04-23T06:56:35.566Z,2.20
2023-04-23T06:59:06.961Z,2.50
2023-04-23T07:01:39.899Z,1.55
2023-04-23T07:04:08.509Z,2.42
2023-04-23T07:06:37.226Z,2.83
2023-04-23T07:09:06.064Z,2.05
2023-04-23T07:11:36.667Z,2.42
2023-04-23T07:14:06.711Z,2.00
2023-04-23T07:16:35.324Z,2.17
2023-04-23T07:19:03.888Z,1.45
2023-04-23T07:21:33.085Z,2.95
2023-04-23T07:24:06.972Z,1.38
2023-04-23T07:26:36.205Z,1.38
2023-04-23T07:29:07.913Z,2.78
2023-04-23T07:31:36.870Z,2.03
2023-04-23T07:34:05.446Z,2.53
2023-04-23T07:36:33.956Z,2.53
2023-04-23T07:39:02.487Z,1.65
2023-04-23T07:41:31.465Z,3.65
2023-04-23T07:43:59.983Z,1.92
2023-04-23T07:46:29.981Z,1.73
2023-04-23T07:48:58.678Z,1.63
2023-04-23T07:51:27.643Z,1.77
2023-04-23T07:53:56.630Z,1.73
2023-04-23T07:56:25.607Z,1.80
2023-04-23T07:58:56.641Z,2.17
2023-04-23T08:01:25.544Z,2.13
2023-04-23T08:03:59.121Z,2.35
2023-04-23T08:06:30.111Z,0.70
2023-04-23T08:08:58.899Z,1.52
2023-04-23T08:11:29.671Z,1.95
2023-04-23T08:13:58.176Z,1.80
2023-04-23T08:16:26.976Z,1.40
2023-04-23T08:19:05.335Z,1.40
2023-04-23T08:21:35.418Z,1.77
2023-04-23T08:24:04.506Z,1.40
2023-04-23T08:26:33.051Z,1.83
2023-04-23T08:29:01.854Z,1.13
2023-04-23T08:31:30.923Z,1.45
2023-04-23T08:34:01.330Z,1.10
2023-04-23T08:36:29.842Z,1.52
2023-04-23T08:38:58.331Z,2.20
2023-04-23T08:41:31.596Z,1.52
2023-04-23T08:44:08.828Z,1.50
2023-04-23T08:46:38.582Z,1.20
2023-04-23T08:49:09.993Z,0.75
2023-04-23T08:51:44.221Z,1.50
2023-04-23T08:54:17.052Z,1.75
2023-04-23T08:56:46.805Z,1.80
2023-04-23T08:59:15.467Z,1.23
2023-04-23T09:11:26.321Z,1.30
2023-04-23T09:13:54.914Z,1.33
2023-04-23T09:16:23.532Z,2.35
2023-04-23T09:18:52.624Z,1.40
2023-04-23T09:21:21.835Z,1.35
2023-04-23T09:23:52.609Z,1.85
2023-04-23T09:26:23.538Z,0.95
2023-04-23T09:28:52.445Z,1.50
2023-04-23T09:31:25.209Z,2.50
2023-04-23T09:33:54.760Z,1.35
2023-04-23T09:36:24.789Z,1.85
2023-04-23T09:38:58.282Z,1.50
2023-04-23T09:41:29.929Z,1.73
2023-04-23T09:43:59.264Z,1.65
2023-04-23T09:46:38.425Z,1.15
2023-04-23T09:49:08.894Z,1.35
2023-04-23T09:51:39.537Z,1.80
2023-04-23T09:54:13.321Z,2.15
2023-04-23T09:56:43.525Z,1.77
2023-04-23T09:59:46.235Z,1.80
2023-04-23T10:02:12.764Z,1.40
2023-04-23T10:04:42.125Z,0.95
2023-04-23T10:07:19.738Z,1.52
2023-04-23T10:09:49.295Z,0.85
2023-04-23T10:12:39.730Z,1.40
2023-04-23T10:18:16.515Z,1.10
2023-04-23T10:20:45.213Z,0.88
2023-04-23T10:23:14.759Z,0.90
2023-04-23T10:25:44.496Z,1.30
2023-04-23T10:28:17.785Z,0.55
2023-04-23T10:30:46.413Z,0.85
2023-04-23T10:33:29.047Z,0.80
2023-04-23T10:35:58.671Z,0.50
2023-04-23T10:38:28.428Z,1.67
2023-04-23T10:40:59.898Z,1.52
2023-04-23T10:43:30.079Z,0.40
2023-04-23T10:45:58.609Z,0.60
2023-04-23T10:48:29.413Z,1.38
2023-04-23T10:53:33.214Z,1.02
2023-04-23T10:56:09.384Z,1.75
2023-04-23T10:58:51.975Z,1.30
2023-04-23T11:01:22.155Z,0.73
2023-04-23T11:03:53.657Z,1.05
2023-04-23T11:06:52.566Z,0.75
2023-04-23T11:09:37.794Z,1.23
2023-04-23T11:12:09.388Z,1.40
2023-04-23T11:14:47.058Z,0.43
2023-04-23T11:17:17.296Z,1.45
2023-04-23T11:20:10.479Z,1.20
2023-04-23T11:22:40.518Z,0.52
2023-04-23T11:25:11.680Z,1.10
2023-04-23T11:27:42.352Z,0.90
2023-04-23T11:30:15.588Z,0.90
2023-04-23T11:32:47.948Z,0.50
2023-04-23T11:35:17.763Z,1.08
2023-04-23T11:37:48.287Z,0.70
2023-04-23T11:40:20.322Z,0.68
2023-04-23T11:42:50.902Z,1.67
2023-04-23T11:45:22.101Z,0.82
2023-04-23T11:47:53.578Z,1.00
2023-04-23T11:50:23.714Z,0.80
2023-04-23T11:52:52.833Z,0.88
2023-04-23T11:55:21.849Z,1.13
2023-04-23T11:57:51.593Z,1.08
2023-04-23T12:00:23.703Z,0.98
2023-04-23T12:02:54.093Z,0.82
2023-04-23T12:05:23.721Z,0.70
2023-04-23T12:07:53.202Z,1.48
2023-04-23T12:10:23.103Z,1.20
2023-04-23T12:12:53.058Z,0.38
2023-04-23T12:15:23.161Z,1.05
2023-04-23T12:17:52.479Z,2.28
2023-04-23T12:20:22.402Z,0.55
2023-04-23T12:22:50.988Z,1.15
2023-04-23T12:25:24.117Z,0.95
2023-04-23T12:46:59.069Z,0.60
2023-04-23T12:49:28.285Z,0.93
2023-04-23T12:52:01.070Z,1.27
2023-04-23T12:54:31.334Z,0.80
2023-04-23T12:57:02.790Z,0.95
2023-04-23T12:59:32.188Z,1.30
2023-04-23T13:02:03.506Z,0.82
2023-04-23T13:04:34.555Z,0.75
2023-04-23T13:07:04.147Z,0.80
2023-04-23T13:09:32.869Z,0.90
2023-04-23T13:12:02.616Z,0.80
2023-04-23T13:14:32.157Z,2.15
2023-04-23T13:17:02.241Z,0.77
2023-04-23T13:19:31.642Z,0.88
2023-04-23T13:22:00.326Z,0.60
2023-04-23T13:24:28.922Z,1.60
2023-04-23T13:26:57.567Z,0.95
2023-04-23T13:29:27.372Z,1.60
2023-04-23T13:31:56.182Z,0.70
2023-04-23T13:34:26.243Z,0.70
2023-04-23T13:36:55.109Z,0.63
2023-04-23T13:39:24.802Z,0.50
2023-04-23T13:42:06.199Z,0.80
2023-04-23T13:44:37.964Z,0.77
2023-04-23T13:47:06.602Z,1.33
2023-04-23T13:49:36.658Z,0.32
2023-04-23T13:52:07.138Z,0.88
2023-04-23T13:54:36.609Z,0.60
2023-04-23T13:57:05.515Z,0.60
2023-04-23T13:59:33.980Z,0.90
2023-04-23T14:02:02.524Z,0.75
2023-04-23T14:04:31.179Z,0.57
2023-04-23T14:07:01.154Z,1.10
2023-04-23T14:09:30.152Z,0.95
2023-04-23T14:12:02.948Z,0.98
2023-04-23T14:14:31.658Z,0.93
2023-04-23T14:17:00.252Z,0.57
2023-04-23T14:19:30.524Z,0.82
2023-04-23T14:22:00.501Z,1.08
2023-04-23T14:24:34.429Z,1.23
2023-04-23T14:27:04.406Z,1.23
2023-04-23T14:29:37.915Z,0.73
2023-04-23T14:32:07.200Z,1.00
2023-04-23T14:34:36.366Z,0.80
2023-04-23T14:37:06.357Z,0.73
2023-04-23T14:39:35.524Z,0.70
2023-04-23T14:42:04.433Z,0.93
2023-04-23T14:44:32.996Z,0.68
2023-04-23T14:47:01.580Z,0.80
2023-04-23T14:49:30.143Z,1.17
2023-04-23T14:51:58.767Z,0.50
2023-04-23T14:54:28.765Z,1.17
2023-04-23T14:56:57.626Z,0.90
2023-04-23T14:59:26.292Z,0.77
2023-04-23T15:01:56.798Z,0.85
2023-04-23T15:04:25.677Z,0.60
2023-04-23T15:06:54.306Z,1.42
2023-04-23T15:09:22.799Z,0.60
2023-04-23T15:11:52.754Z,1.17
2023-04-23T15:14:26.078Z,0.85
2023-04-23T15:16:54.808Z,1.38
2023-04-23T15:19:23.446Z,1.10
2023-04-23T15:21:52.013Z,0.88
2023-04-23T15:24:20.654Z,0.90
2023-04-23T15:26:49.894Z,0.93
2023-04-23T15:29:20.989Z,1.15
2023-04-23T15:31:49.588Z,1.17
2023-04-23T15:34:18.264Z,1.25
2023-04-23T15:36:46.792Z,0.80
2023-04-23T15:39:15.395Z,1.38
2023-04-23T15:41:46.055Z,1.13
2023-04-23T15:44:14.947Z,1.08
2023-04-23T15:46:44.824Z,0.90
2023-04-23T15:49:13.325Z,1.33
2023-04-23T15:51:43.262Z,1.40
2023-04-23T15:54:11.908Z,1.42
2023-04-23T15:56:41.012Z,1.17
2023-04-23T15:59:09.581Z,1.50
2023-04-23T16:01:38.287Z,0.73
2023-04-23T16:04:10.492Z,1.05
2023-04-23T16:06:40.620Z,0.73
2023-04-23T16:09:09.423Z,0.88
2023-04-23T16:11:39.095Z,1.23
2023-04-23T16:14:09.450Z,1.77
2023-04-23T16:16:39.187Z,1.67
2023-04-23T16:19:09.469Z,1.25
2023-04-23T16:21:38.097Z,0.95
2023-04-23T16:24:07.810Z,0.93
2023-04-23T16:26:37.537Z,1.17
2023-04-23T16:31:40.643Z,1.02
2023-04-23T16:34:10.702Z,1.23
2023-04-23T16:36:39.666Z,1.17
2023-04-23T16:39:08.233Z,0.90
2023-04-23T16:41:36.785Z,1.23
2023-04-23T16:44:05.510Z,1.63
2023-04-23T16:46:34.291Z,1.27
2023-04-23T16:49:03.070Z,1.60
2023-04-23T16:51:33.236Z,1.20
2023-04-23T16:54:01.874Z,1.13
2023-04-23T16:56:31.082Z,1.50
2023-04-23T16:59:00.267Z,0.93
2023-04-23T17:01:28.872Z,1.42
2023-04-23T17:03:57.621Z,1.55
2023-04-23T17:06:30.844Z,1.20
2023-04-23T17:09:03.299Z,2.30
2023-04-23T17:11:32.684Z,1.25
2023-04-23T17:14:01.233Z,1.67
2023-04-23T17:16:29.839Z,2.45
2023-04-23T17:21:45.960Z,1.10
2023-04-23T17:24:15.873Z,2.20
2023-04-23T17:26:44.482Z,2.33
2023-04-23T17:29:13.686Z,1.23
2023-04-23T17:31:42.392Z,1.55
2023-04-23T17:34:13.969Z,1.30
2023-04-23T17:36:42.755Z,1.75
2023-04-23T17:39:11.425Z,2.60
2023-04-23T17:41:41.448Z,1.23
2023-04-23T17:44:10.211Z,1.42
2023-04-23T17:46:38.838Z,0.93
2023-04-23T17:49:20.068Z,1.35
2023-04-23T17:51:48.673Z,1.60
2023-04-23T17:54:17.860Z,0.90
2023-04-23T17:56:47.731Z,1.40
2023-04-23T17:59:17.296Z,2.15
2023-04-23T18:01:47.819Z,2.13
2023-04-23T18:04:17.732Z,0.82
2023-04-23T18:06:49.777Z,1.83
2023-04-23T18:09:18.417Z,1.63
2023-04-23T18:11:48.470Z,1.80
2023-04-23T18:14:17.178Z,1.25
2023-04-23T18:16:45.755Z,1.85
2023-04-23T18:19:14.520Z,0.98
2023-04-23T18:21:44.895Z,1.60
2023-04-23T18:24:14.331Z,1.67
2023-04-23T18:26:42.932Z,0.80
2023-04-23T18:29:12.906Z,1.48
2023-04-23T18:31:41.520Z,0.88
2023-04-23T18:34:11.425Z,1.42
2023-04-23T18:36:44.098Z,1.67
2023-04-23T18:39:12.786Z,1.48
2023-04-23T18:41:41.314Z,1.30
2023-04-23T18:44:13.062Z,1.70
2023-04-23T18:46:43.291Z,1.33
2023-04-23T18:49:39.319Z,1.08
2023-04-23T18:52:08.405Z,2.15
2023-04-23T18:54:36.963Z,1.30
2023-04-23T18:57:05.706Z,0.93
2023-04-23T18:59:37.073Z,1.27
2023-04-23T19:02:07.767Z,1.13
2023-04-23T19:04:36.859Z,1.55
2023-04-23T19:07:05.550Z,0.80
2023-04-23T19:09:34.209Z,1.75
2023-04-23T19:12:03.009Z,1.83
2023-04-23T19:14:31.601Z,0.85
2023-04-23T19:17:00.927Z,1.50
2023-04-23T19:19:32.181Z,0.80
2023-04-23T19:22:03.352Z,2.17
2023-04-23T19:24:32.951Z,2.10
2023-04-23T19:27:02.221Z,1.83
2023-04-23T19:29:30.727Z,1.33
2023-04-23T19:31:59.301Z,2.17
2023-04-23T19:34:27.790Z,2.20
2023-04-23T19:36:57.792Z,2.10
2023-04-23T19:39:26.835Z,1.63
2023-04-23T19:41:55.456Z,3.83
2023-04-23T19:44:24.008Z,1.77
2023-04-23T19:46:52.656Z,2.08
2023-04-23T19:49:21.201Z,3.20
2023-04-23T19:51:50.222Z,2.83
2023-04-23T19:54:22.240Z,3.20
2023-04-23T19:56:52.036Z,1.90
2023-04-23T19:59:21.865Z,1.92
2023-04-23T20:01:50.602Z,3.20
2023-04-23T20:04:19.242Z,2.92
2023-04-23T20:06:47.975Z,5.35
2023-04-23T20:09:21.585Z,3.60
2023-04-23T20:11:53.569Z,3.72
2023-04-23T20:14:22.455Z,5.00
2023-04-23T20:16:51.363Z,3.85
2023-04-23T20:19:20.117Z,3.72
2023-04-23T20:21:48.698Z,2.67
2023-04-23T20:24:17.266Z,4.70
2023-04-23T20:26:46.012Z,2.53
2023-04-23T20:29:16.006Z,5.15
2023-04-23T20:34:28.502Z,5.30
2023-04-23T20:37:03.076Z,3.10
2023-04-23T20:39:32.748Z,4.32
2023-04-23T20:42:01.760Z,3.65
2023-04-23T20:44:31.718Z,3.72
2023-04-23T20:47:10.510Z,2.22
2023-04-23T20:49:40.380Z,2.47
2023-04-23T20:52:09.162Z,3.40
2023-04-23T20:54:37.910Z,2.80
2023-04-23T20:57:07.117Z,3.28
2023-04-23T20:59:37.280Z,3.15
2023-04-23T21:02:06.700Z,2.40
2023-04-23T21:04:35.929Z,1.83
2023-04-23T21:07:04.760Z,4.20
2023-04-23T21:09:33.540Z,2.47
2023-04-23T21:12:02.397Z,1.75
2023-04-23T21:14:31.759Z,1.67
2023-04-23T21:17:02.226Z,1.98
2023-04-23T21:19:30.829Z,2.95
2023-04-23T21:21:59.317Z,2.03
2023-04-23T21:24:27.817Z,3.20
2023-04-23T21:26:56.608Z,1.88
2023-04-23T21:29:26.496Z,2.65
2023-04-23T21:31:55.182Z,1.65
2023-04-23T21:34:25.254Z,1.73
2023-04-23T21:36:53.859Z,1.85
2023-04-23T21:39:22.374Z,2.05
2023-04-23T21:41:51.273Z,3.15
2023-04-23T21:44:21.526Z,2.38
2023-04-23T21:46:50.209Z,1.75
2023-04-23T21:49:18.858Z,2.80
2023-04-23T21:51:50.239Z,1.73
2023-04-23T21:54:18.778Z,2.38
2023-04-23T21:56:47.354Z,3.13
2023-04-23T21:59:16.057Z,2.35
2023-04-23T22:01:44.639Z,1.90
2023-04-23T22:04:14.244Z,2.65
2023-04-23T22:06:44.505Z,1.65
2023-04-23T22:09:14.551Z,2.63
2023-04-23T22:11:55.169Z,2.78
2023-04-23T22:14:30.517Z,3.25
2023-04-23T22:16:59.774Z,1.88
2023-04-23T22:19:28.660Z,1.85
2023-04-23T22:21:57.267Z,1.92
2023-04-23T22:24:27.284Z,2.13
2023-04-23T22:26:55.837Z,2.50
2023-04-23T22:29:24.401Z,2.47
2023-04-23T22:31:53.017Z,2.97
2023-04-23T22:34:21.544Z,2.28
2023-04-23T22:36:50.128Z,3.35
2023-04-23T22:39:18.857Z,3.80
2023-04-23T22:41:48.898Z,2.60
2023-04-23T22:44:17.499Z,3.65
2023-04-23T22:46:47.022Z,2.50
2023-04-23T22:49:15.537Z,1.88
2023-04-23T22:51:44.059Z,1.70
2023-04-23T22:54:12.683Z,4.25
2023-04-23T22:56:41.862Z,3.97
2023-04-23T22:59:13.551Z,3.25
2023-04-23T23:01:42.489Z,2.50
2023-04-23T23:04:13.020Z,2.70
2023-04-23T23:06:43.081Z,2.35
2023-04-23T23:09:11.671Z,2.95
2023-04-23T23:11:40.761Z,3.38
2023-04-23T23:14:09.256Z,2.13
2023-04-23T23:16:39.692Z,2.35
2023-04-23T23:19:08.411Z,3.70
2023-04-23T23:21:37.058Z,2.33
2023-04-23T23:24:06.074Z,3.58
2023-04-23T23:26:34.692Z,3.05
2023-04-23T23:29:03.447Z,4.18
2023-04-23T23:31:32.487Z,3.55
2023-04-23T23:34:02.850Z,2.58
2023-04-23T23:36:32.038Z,2.72
2023-04-23T23:39:00.669Z,4.10
2023-04-23T23:41:29.252Z,3.05
2023-04-23T23:43:57.846Z,2.60
2023-04-23T23:46:26.601Z,2.28
2023-04-23T23:48:55.526Z,3.17
2023-04-23T23:51:25.716Z,2.20
2023-04-23T23:53:54.351Z,3.42
2023-04-23T23:56:22.875Z,1.98
2023-04-23T23:58:51.628Z,3.00
